Time;durP1;ratioP1;P1;durP2;ratioP2;P2;SDS_P1;SDS_P2;PMS_P1;PMS_P2;Temp;Humidity;BMP_temperature;BMP_pressure;BME280_temperature;BME280_humidity;BME280_pressure;Samples;Min_cycle;Max_cycle;Signal;HPM_P1;HPM_P2
2022/06/06 00:00:12;;;;;;;4.80;4.50;;;;;;;16.62;80.23;99479.67;1757486;80;21001;-74
2022/06/06 00:02:39;;;;;;;6.08;4.60;;;;;;;16.57;80.21;99477.63;1757504;80;20936;-74
2022/06/06 00:05:07;;;;;;;5.00;4.58;;;;;;;16.54;80.51;99479.38;1757352;80;20962;-74
2022/06/06 00:07:35;;;;;;;4.00;3.70;;;;;;;16.53;80.73;99481.74;1764987;80;21113;-73
2022/06/06 00:10:03;;;;;;;4.95;4.28;;;;;;;16.51;81.00;99484.30;1745922;80;21827;-73
2022/06/06 00:12:31;;;;;;;4.55;4.25;;;;;;;16.49;80.90;99489.89;1787190;79;21013;-73
2022/06/06 00:14:58;;;;;;;6.53;4.40;;;;;;;16.46;80.77;99483.59;1787310;80;21413;-75
2022/06/06 00:17:25;;;;;;;3.62;3.25;;;;;;;16.39;80.84;99480.59;1785774;79;21000;-71
2022/06/06 00:19:52;;;;;;;3.15;2.95;;;;;;;16.35;80.78;99484.20;1733073;80;20894;-72
2022/06/06 00:22:19;;;;;;;3.27;3.02;;;;;;;16.24;80.06;99482.67;1757472;80;21157;-72
2022/06/06 00:24:46;;;;;;;4.10;3.60;;;;;;;16.10;79.48;99488.55;1760739;80;20971;-73
2022/06/06 00:27:12;;;;;;;4.10;3.08;;;;;;;15.96;79.12;99490.37;1772580;79;21396;-73
2022/06/06 00:29:39;;;;;;;6.03;3.42;;;;;;;15.85;79.11;99498.22;1750717;79;20984;-74
2022/06/06 00:34:52;;;;;;;4.80;4.28;;;;;;;15.74;79.55;99497.47;1744211;81;21099;-76
2022/06/06 00:37:24;;;;;;;4.83;4.53;;;;;;;15.74;80.25;99502.32;1755791;81;21026;-76
2022/06/06 00:39:51;;;;;;;6.87;4.67;;;;;;;15.76;80.90;99498.08;1753720;81;21414;-75
2022/06/06 00:42:34;;;;;;;5.40;5.00;;;;;;;15.77;81.47;99493.04;1745330;81;21119;-75
2022/06/06 00:45:19;;;;;;;8.13;5.87;;;;;;;15.79;81.89;99495.00;1760064;81;21377;-72
2022/06/06 00:47:56;;;;;;;5.12;4.75;;;;;;;15.82;82.40;99491.91;1767461;81;21154;-75
2022/06/06 00:50:31;;;;;;;4.80;4.37;;;;;;;15.85;82.81;99494.99;1771645;80;21028;-75
2022/06/06 00:52:59;;;;;;;4.90;4.45;;;;;;;15.88;83.00;99496.45;1748687;81;20887;-75
2022/06/06 00:55:29;;;;;;;5.28;4.87;;;;;;;15.86;82.80;99491.30;1743221;81;21046;-72
2022/06/06 00:58:00;;;;;;;5.28;4.85;;;;;;;15.84;82.71;99499.23;1745789;81;20931;-72
2022/06/06 01:00:27;;;;;;;5.00;4.12;;;;;;;15.79;82.54;99494.48;1743551;81;21311;-75
2022/06/06 01:02:56;;;;;;;4.50;4.10;;;;;;;15.73;82.33;99489.92;1751503;81;21046;-73
2022/06/06 01:05:23;;;;;;;4.97;3.92;;;;;;;15.66;82.13;99493.11;1744964;81;20927;-73
2022/06/06 01:07:49;;;;;;;4.60;3.80;;;;;;;15.58;82.05;99497.32;1743772;81;20896;-74
2022/06/06 01:10:16;;;;;;;6.25;4.12;;;;;;;15.51;82.39;99500.50;1743789;81;20971;-73
2022/06/06 01:12:47;;;;;;;5.15;4.22;;;;;;;15.52;82.78;99497.28;1749930;81;20982;-72
2022/06/06 01:15:17;;;;;;;4.35;3.98;;;;;;;15.54;82.93;99489.89;1745043;80;21508;-75
2022/06/06 01:18:14;;;;;;;3.50;3.30;;;;;;;15.53;82.92;99489.56;1743836;81;20935;-75
2022/06/06 01:21:04;;;;;;;;;;;;;;;15.54;82.86;99500.61;1770133;81;20983;-74
2022/06/06 01:24:09;;;;;;;5.92;4.25;;;;;;;15.50;82.60;99492.14;1753500;79;20081;-74
2022/06/06 01:26:58;;;;;;;4.62;3.98;;;;;;;15.47;82.43;99497.89;1779060;80;21227;-74
2022/06/06 01:29:29;;;;;;;5.35;4.85;;;;;;;15.38;82.53;99501.22;1789297;80;20919;-74
2022/06/06 01:32:04;;;;;;;5.60;5.12;;;;;;;15.38;82.91;99497.74;1789809;80;20966;-75
2022/06/06 01:34:35;;;;;;;10.53;5.17;;;;;;;15.41;83.38;99484.74;1766521;79;21097;-73
2022/06/06 01:37:03;;;;;;;5.72;5.33;;;;;;;15.49;83.73;99484.30;1759831;80;21437;-72
2022/06/06 01:39:31;;;;;;;5.60;5.20;;;;;;;15.52;83.98;99475.33;1759875;80;21133;-73
2022/06/06 01:42:33;;;;;;;5.90;5.45;;;;;;;15.56;84.21;99476.59;1761280;80;20962;-72
2022/06/06 01:45:15;;;;;;;5.75;5.35;;;;;;;15.61;84.41;99478.66;1780243;80;20844;-73
2022/06/06 01:47:48;;;;;;;5.85;5.25;;;;;;;15.65;84.58;99470.00;1789767;80;20887;-72
2022/06/06 01:50:15;;;;;;;6.25;5.75;;;;;;;15.67;84.77;99471.16;1789876;79;21028;-73
2022/06/06 01:53:01;;;;;;;5.75;5.25;;;;;;;15.70;84.90;99462.67;1784736;80;21821;-73
2022/06/06 01:55:29;;;;;;;5.43;5.10;;;;;;;15.72;84.90;99457.42;1759952;80;20958;-72
2022/06/06 01:58:01;;;;;;;5.90;5.50;;;;;;;15.74;85.01;99457.23;1759796;80;21004;-73
2022/06/06 02:00:30;;;;;;;6.08;5.45;;;;;;;15.76;85.10;99464.05;1759912;80;20954;-73
2022/06/06 02:02:57;;;;;;;5.65;5.12;;;;;;;15.79;85.13;99460.96;1768913;80;21021;-73
2022/06/06 02:05:23;;;;;;;5.62;5.22;;;;;;;15.81;85.17;99460.23;1760704;80;21252;-73
2022/06/06 02:07:50;;;;;;;4.97;4.67;;;;;;;15.83;85.10;99457.34;1759610;80;20918;-73
2022/06/06 02:10:17;;;;;;;5.20;4.90;;;;;;;15.85;85.05;99452.08;1759803;80;21038;-72
2022/06/06 02:12:44;;;;;;;5.10;4.70;;;;;;;15.86;85.03;99447.55;1768259;80;21013;-73
2022/06/06 02:15:14;;;;;;;5.35;4.92;;;;;;;15.88;85.00;99444.97;1764239;80;21045;-73
2022/06/06 02:17:40;;;;;;;4.95;4.65;;;;;;;15.89;84.92;99438.58;1759728;80;21083;-72
2022/06/06 02:20:09;;;;;;;5.30;5.00;;;;;;;15.90;84.80;99442.09;1759790;80;21021;-71
2022/06/06 02:22:35;;;;;;;5.65;5.22;;;;;;;15.92;84.64;99440.86;1766653;80;20923;-73
2022/06/06 02:25:04;;;;;;;5.05;4.60;;;;;;;15.94;84.46;99434.77;1761109;80;20958;-73
2022/06/06 02:27:32;;;;;;;5.47;5.00;;;;;;;15.94;84.17;99431.25;1759720;80;21425;-73
2022/06/06 02:29:58;;;;;;;4.80;4.50;;;;;;;15.92;84.13;99427.45;1759681;80;21223;-73
2022/06/06 02:32:26;;;;;;;5.15;4.85;;;;;;;15.95;84.10;99428.38;1764982;80;20927;-71
2022/06/06 02:34:52;;;;;;;5.55;5.15;;;;;;;15.97;84.12;99430.34;1779455;80;20994;-73
2022/06/06 02:37:18;;;;;;;5.42;5.05;;;;;;;15.99;84.19;99427.44;1759786;80;20926;-73
2022/06/06 02:39:45;;;;;;;5.55;5.15;;;;;;;16.02;84.24;99427.86;1759894;80;20930;-73
2022/06/06 02:42:11;;;;;;;5.80;5.35;;;;;;;16.06;84.23;99422.37;1763384;80;21156;-73
2022/06/06 02:44:39;;;;;;;6.12;5.60;;;;;;;16.11;84.22;99427.14;1762644;79;21087;-72
2022/06/06 02:47:05;;;;;;;6.10;5.62;;;;;;;16.17;84.28;99429.48;1759660;80;20989;-74
2022/06/06 02:49:33;;;;;;;5.75;5.20;;;;;;;16.25;84.19;99431.97;1759718;80;20903;-76
2022/06/06 02:52:04;;;;;;;5.55;5.15;;;;;;;16.32;84.05;99428.78;1763960;80;21470;-73
2022/06/06 02:54:31;;;;;;;5.40;5.00;;;;;;;16.37;83.65;99431.66;1759886;80;21234;-70
2022/06/06 02:56:58;;;;;;;5.58;4.47;;;;;;;16.38;83.10;99431.95;1759671;80;20970;-72
2022/06/06 02:59:25;;;;;;;5.33;4.70;;;;;;;16.36;82.49;99427.31;1759782;80;20891;-75
2022/06/06 03:01:52;;;;;;;5.55;4.87;;;;;;;16.36;82.38;99424.12;1767707;80;21434;-75
2022/06/06 03:04:19;;;;;;;4.97;4.58;;;;;;;16.44;82.52;99428.45;1763102;80;20910;-73
2022/06/06 03:07:20;;;;;;;5.42;4.95;;;;;;;16.54;82.56;99426.19;1759808;80;21131;-72
2022/06/06 03:09:55;;;;;;;5.37;4.97;;;;;;;16.68;82.35;99427.81;1769542;80;20996;-71
2022/06/06 03:12:36;;;;;;;4.65;4.20;;;;;;;16.84;82.11;99425.98;1784989;80;20994;-72
2022/06/06 03:15:12;;;;;;;5.47;4.05;;;;;;;16.99;81.78;99427.92;1759734;80;21025;-73
2022/06/06 03:20:54;;;;;;;6.22;4.00;;;;;;;17.31;80.27;99430.68;1735650;82;22137;-72
2022/06/06 03:23:48;;;;;;;7.03;4.22;;;;;;;17.51;79.47;99432.73;1780183;80;20883;-74
2022/06/06 03:26:20;;;;;;;4.83;3.83;;;;;;;17.70;78.66;99439.91;1782387;80;21477;-73
2022/06/06 03:29:10;;;;;;;8.08;3.65;;;;;;;17.93;78.13;99432.08;1789611;80;20939;-76
2022/06/06 03:32:08;;;;;;;4.40;4.03;;;;;;;18.17;77.46;99435.27;1789738;80;20915;-72
2022/06/06 03:34:59;;;;;;;5.15;4.00;;;;;;;18.47;76.53;99431.42;1763841;80;21242;-75
2022/06/06 03:37:50;;;;;;;4.22;3.83;;;;;;;18.93;75.24;99430.92;1759769;80;21469;-74
2022/06/06 03:40:31;;;;;;;3.90;3.60;;;;;;;19.56;73.28;99424.13;1783805;80;21020;-74
2022/06/06 03:43:23;;;;;;;6.97;4.58;;;;;;;20.20;70.84;99426.05;1778787;80;20932;-74
2022/06/06 03:46:14;;;;;;;9.45;3.62;;;;;;;20.85;68.84;99423.23;1781872;80;20914;-72
2022/06/06 03:49:15;;;;;;;5.35;3.47;;;;;;;21.51;66.56;99419.45;1789816;79;21257;-75
2022/06/06 03:52:04;;;;;;;6.67;3.58;;;;;;;22.21;64.45;99424.51;1788992;79;21009;-74
2022/06/06 03:54:52;;;;;;;4.12;3.72;;;;;;;22.93;62.01;99426.67;1787600;80;20927;-75
2022/06/06 03:57:22;;;;;;;3.90;3.55;;;;;;;23.60;59.68;99427.22;1759561;80;21406;-75
2022/06/06 03:59:55;;;;;;;3.65;3.33;;;;;;;24.25;57.76;99419.41;1759926;80;20915;-72
2022/06/06 04:02:29;;;;;;;4.22;3.42;;;;;;;24.81;55.90;99425.55;1767940;80;21177;-73
2022/06/06 04:04:56;;;;;;;6.40;4.58;;;;;;;25.36;54.13;99422.24;1759504;80;21555;-75
2022/06/06 04:07:22;;;;;;;6.75;3.80;;;;;;;26.18;50.87;99419.42;1758162;80;20899;-74
2022/06/06 04:09:52;;;;;;;5.28;4.87;;;;;;;26.18;50.87;99419.42;1759903;80;21417;-71
2022/06/06 04:12:37;;;;;;;24.50;22.00;;;;;;;26.57;50.24;99414.73;1766940;80;20958;-71
2022/06/06 04:15:19;;;;;;;12.25;10.82;;;;;;;27.18;49.28;99410.77;1786832;80;21304;-72
2022/06/06 04:18:17;;;;;;;6.97;6.37;;;;;;;27.90;47.61;99411.45;1759171;80;20926;-72
2022/06/06 04:21:07;;;;;;;7.92;4.60;;;;;;;28.52;45.87;99408.50;1779180;80;21096;-73
2022/06/06 04:23:48;;;;;;;5.33;4.78;;;;;;;29.20;44.57;99403.09;1780126;80;21001;-72
2022/06/06 04:26:47;;;;;;;6.40;4.30;;;;;;;29.83;42.96;99408.27;1775064;80;20982;-74
2022/06/06 04:29:39;;;;;;;4.97;4.67;;;;;;;30.43;41.59;99401.80;1707839;80;21275;-73
2022/06/06 04:32:29;;;;;;;6.40;4.70;;;;;;;31.10;40.14;99403.56;1763323;80;20939;-75
2022/06/06 04:35:30;;;;;;;4.95;4.65;;;;;;;31.55;38.78;99396.27;1757710;80;21441;-74
2022/06/06 04:38:11;;;;;;;4.83;3.60;;;;;;;31.90;37.98;99397.39;1780285;80;21489;-73
2022/06/06 04:40:53;;;;;;;3.72;3.45;;;;;;;32.43;37.04;99401.03;1764226;79;21558;-72
2022/06/06 04:43:37;;;;;;;4.12;3.83;;;;;;;32.90;35.65;99400.88;1761339;79;21755;-71
2022/06/06 04:46:32;;;;;;;5.12;3.58;;;;;;;33.37;34.59;99406.14;1755768;80;20987;-72
2022/06/06 04:49:00;;;;;;;6.12;5.62;;;;;;;33.85;33.51;99408.78;1774656;80;20899;-69
2022/06/06 04:51:26;;;;;;;4.08;3.62;;;;;;;34.17;32.86;99406.12;1783614;80;20970;-71
2022/06/06 04:53:55;;;;;;;3.80;3.35;;;;;;;34.57;32.38;99408.91;1782513;80;20935;-71
2022/06/06 04:56:22;;;;;;;3.40;3.10;;;;;;;35.03;31.56;99408.88;1754081;80;21789;-71
2022/06/06 04:58:51;;;;;;;2.45;2.35;;;;;;;35.46;30.78;99410.02;1753888;80;20936;-70
2022/06/06 05:01:19;;;;;;;2.90;2.47;;;;;;;35.87;29.86;99414.80;1773736;79;20975;-72
2022/06/06 05:03:47;;;;;;;3.95;2.27;;;;;;;36.20;29.25;99417.61;1766874;80;21049;-72
2022/06/06 05:07:03;;;;;;;2.72;2.52;;;;;;;36.47;28.64;99417.02;1763672;80;20982;-70
2022/06/06 05:09:56;;;;;;;3.25;3.05;;;;;;;36.71;28.39;99420.44;1773760;80;21132;-70
2022/06/06 05:12:39;;;;;;;3.60;3.30;;;;;;;37.13;27.96;99424.06;1778378;80;20962;-69
2022/06/06 05:15:54;;;;;;;3.98;3.33;;;;;;;37.21;27.78;99425.70;1754564;80;21500;-69
2022/06/06 05:18:35;;;;;;;3.40;3.20;;;;;;;37.52;27.33;99427.31;1781778;80;20919;-68
2022/06/06 05:21:13;;;;;;;3.65;3.35;;;;;;;37.46;26.90;99435.06;1784015;80;20879;-70
2022/06/06 05:24:04;;;;;;;3.50;3.20;;;;;;;37.40;27.18;99436.99;1770174;79;21264;-69
2022/06/06 05:27:03;;;;;;;3.40;3.20;;;;;;;37.80;27.02;99439.84;1754217;80;20880;-69
2022/06/06 05:30:12;;;;;;;3.72;3.42;;;;;;;38.34;26.35;99445.25;1769929;79;20840;-71
2022/06/06 05:33:04;;;;;;;3.65;3.35;;;;;;;38.76;25.62;99449.21;1759465;80;21586;-72
2022/06/06 05:36:05;;;;;;;4.83;4.42;;;;;;;38.95;25.44;99450.47;1756590;80;20971;-71
2022/06/06 05:38:52;;;;;;;8.23;7.53;;;;;;;39.17;24.97;99449.23;1774005;80;21521;-76
2022/06/06 05:41:47;;;;;;;13.35;11.75;;;;;;;39.30;24.63;99449.97;1757351;80;20848;-76
2022/06/06 05:44:38;;;;;;;17.20;15.08;;;;;;;39.05;24.80;99447.96;1766442;80;20942;-73
2022/06/06 05:47:19;;;;;;;13.45;12.05;;;;;;;39.28;24.46;99451.73;1754049;80;21512;-73
2022/06/06 05:50:03;;;;;;;10.45;9.45;;;;;;;39.52;23.57;99452.67;1764960;80;20969;-74
2022/06/06 05:52:45;;;;;;;9.78;8.60;;;;;;;39.74;23.22;99452.81;1754117;80;21079;-71
2022/06/06 05:55:44;;;;;;;5.87;5.25;;;;;;;40.20;22.50;99452.44;1768475;80;22281;-68
2022/06/06 05:58:29;;;;;;;6.37;4.83;;;;;;;40.30;22.42;99448.24;1762967;80;21006;-70
2022/06/06 06:01:40;;;;;;;4.78;4.28;;;;;;;40.71;22.21;99449.44;1767740;80;21053;-68
2022/06/06 06:04:27;;;;;;;4.80;2.77;;;;;;;41.32;21.74;99443.17;1764114;79;21121;-72
2022/06/06 06:07:16;;;;;;;2.87;2.67;;;;;;;42.16;21.03;99444.95;1761937;79;21203;-71
2022/06/06 06:10:01;;;;;;;3.27;2.70;;;;;;;42.55;20.21;99448.24;1762979;80;21090;-69
2022/06/06 06:12:51;;;;;;;3.90;2.40;;;;;;;42.48;20.31;99448.70;1753615;80;21476;-70
2022/06/06 06:15:29;;;;;;;1.95;1.85;;;;;;;42.62;19.53;99458.09;1775006;80;21090;-74
2022/06/06 06:17:57;;;;;;;4.53;2.02;;;;;;;42.03;20.00;99461.73;1774063;80;21030;-71
2022/06/06 06:20:29;;;;;;;1.75;1.50;;;;;;;42.09;20.08;99464.41;1754029;80;21533;-76
2022/06/06 06:23:08;;;;;;;2.00;1.90;;;;;;;42.16;19.73;99459.55;1755223;80;21089;-73
2022/06/06 06:25:37;;;;;;;2.58;2.47;;;;;;;42.15;19.65;99469.92;1774338;79;21038;-74
2022/06/06 06:28:10;;;;;;;2.37;2.17;;;;;;;41.95;19.70;99463.44;1775320;80;21477;-64
2022/06/06 06:30:51;;;;;;;2.30;2.10;;;;;;;41.73;20.11;99470.72;1759230;80;20974;-65
2022/06/06 06:33:59;;;;;;;2.12;2.00;;;;;;;41.83;20.32;99465.28;1757878;80;21165;-65
2022/06/06 06:36:34;;;;;;;2.77;2.10;;;;;;;42.13;20.00;99463.91;1775127;80;20978;-64
2022/06/06 06:39:33;;;;;;;2.85;2.40;;;;;;;42.33;19.56;99463.13;1741816;80;20997;-66
2022/06/06 06:42:33;;;;;;;2.58;2.37;;;;;;;42.40;19.77;99466.00;1762531;78;21433;-67
2022/06/06 06:45:04;;;;;;;3.83;2.00;;;;;;;42.87;19.46;99469.51;1766906;79;21658;-62
2022/06/06 06:47:33;;;;;;;3.62;2.33;;;;;;;43.18;18.25;99461.23;1786463;78;21233;-70
2022/06/06 06:50:17;;;;;;;2.47;2.20;;;;;;;42.95;18.74;99465.62;1765688;80;20887;-69
2022/06/06 06:52:55;;;;;;;3.17;2.35;;;;;;;43.12;18.93;99467.78;1759470;80;20975;-64
2022/06/06 06:55:52;;;;;;;2.87;2.65;;;;;;;43.62;18.39;99468.34;1758061;80;21050;-62
2022/06/06 06:58:53;;;;;;;2.40;2.30;;;;;;;43.82;18.04;99475.10;1786500;80;20975;-68
2022/06/06 07:01:41;;;;;;;2.20;2.10;;;;;;;44.23;17.50;99476.52;1776567;80;21108;-72
2022/06/06 07:10:27;;;;;;;2.17;1.92;;;;;;;44.15;17.47;99462.27;1774226;80;21171;-76
2022/06/06 07:13:23;;;;;;;2.05;1.90;;;;;;;44.42;16.83;99454.35;1769980;79;20831;-75
2022/06/06 07:15:54;;;;;;;2.00;1.90;;;;;;;44.73;16.42;99457.84;1769870;80;21516;-74
2022/06/06 07:18:24;;;;;;;1.98;1.77;;;;;;;44.83;16.22;99461.86;1769782;80;21433;-74
2022/06/06 07:20:51;;;;;;;3.08;2.12;;;;;;;45.16;15.82;99462.29;1773848;79;20903;-74
2022/06/06 07:23:18;;;;;;;1.87;1.77;;;;;;;45.23;15.75;99456.70;1778848;80;20931;-75
2022/06/06 07:25:48;;;;;;;6.03;2.55;;;;;;;45.30;15.67;99458.70;1782938;80;21021;-75
2022/06/06 07:28:22;;;;;;;2.90;1.92;;;;;;;45.58;15.53;99459.28;1759825;80;21130;-74
2022/06/06 07:31:35;;;;;;;2.10;2.00;;;;;;;45.50;15.34;99464.08;1781078;80;20902;-73
2022/06/06 07:34:33;;;;;;;2.00;1.90;;;;;;;44.51;15.82;99461.83;1780258;80;20875;-73
2022/06/06 07:37:14;;;;;;;2.02;1.92;;;;;;;43.17;15.88;99465.20;1786642;80;21410;-73
2022/06/06 07:39:55;;;;;;;2.75;1.80;;;;;;;41.17;17.53;99465.81;1789770;80;20977;-72
2022/06/06 07:42:36;;;;;;;3.10;1.90;;;;;;;40.94;18.43;99473.39;1789763;79;21262;-74
2022/06/06 07:45:26;;;;;;;3.98;1.57;;;;;;;41.83;17.79;99475.64;1779101;79;21575;-71
2022/06/06 07:48:38;;;;;;;2.00;1.80;;;;;;;42.54;16.81;99470.39;1789773;79;20859;-73
2022/06/06 07:51:34;;;;;;;1.50;1.40;;;;;;;43.39;16.04;99464.19;1789532;79;20935;-74
2022/06/06 07:54:16;;;;;;;1.60;1.40;;;;;;;44.02;15.12;99466.59;1783955;80;21452;-73
2022/06/06 07:57:04;;;;;;;1.60;1.50;;;;;;;44.50;15.03;99459.62;1783987;79;21096;-75
2022/06/06 08:00:02;;;;;;;2.55;1.67;;;;;;;45.38;14.62;99471.53;1759360;80;20990;-72
2022/06/06 08:02:55;;;;;;;1.95;1.57;;;;;;;46.22;13.51;99469.14;1760115;80;21434;-73
2022/06/06 08:06:20;;;;;;;1.75;1.65;;;;;;;46.51;13.36;99462.18;1781360;80;20978;-75
2022/06/06 08:09:05;;;;;;;2.60;1.47;;;;;;;46.18;13.12;99460.53;1783542;80;21568;-72
2022/06/06 08:12:01;;;;;;;1.60;1.50;;;;;;;45.31;13.50;99463.12;1789980;80;21675;-73
2022/06/06 08:14:53;;;;;;;3.72;1.50;;;;;;;44.79;14.14;99472.50;1789367;79;20927;-74
2022/06/06 08:17:46;;;;;;;2.95;1.52;;;;;;;45.27;13.56;99470.14;1789970;80;21430;-72
2022/06/06 08:20:27;;;;;;;2.42;1.65;;;;;;;45.52;13.27;99470.13;1759720;80;20954;-73
2022/06/06 08:22:55;;;;;;;1.87;1.22;;;;;;;45.96;13.45;99464.00;1759813;80;20910;-72
2022/06/06 08:25:21;;;;;;;2.67;1.45;;;;;;;46.65;12.78;99465.48;1759698;80;21094;-73
2022/06/06 08:27:50;;;;;;;1.60;1.50;;;;;;;47.07;12.20;99457.35;1759686;80;20899;-73
2022/06/06 08:30:20;;;;;;;1.52;1.42;;;;;;;47.18;11.93;99460.11;1759844;80;20985;-73
2022/06/06 08:32:47;;;;;;;1.75;1.27;;;;;;;46.73;12.40;99457.79;1759802;80;21046;-75
2022/06/06 08:35:16;;;;;;;1.65;1.50;;;;;;;46.80;12.33;99454.38;1759771;80;21484;-74
2022/06/06 08:38:13;;;;;;;1.60;1.50;;;;;;;46.18;12.92;99464.75;1759828;80;21218;-74
2022/06/06 08:40:51;;;;;;;1.87;1.25;;;;;;;46.11;13.04;99468.37;1759705;80;20871;-74
2022/06/06 08:43:41;;;;;;;1.50;1.40;;;;;;;46.51;13.01;99472.03;1743533;80;20902;-74
2022/06/06 08:46:41;;;;;;;2.05;1.70;;;;;;;46.42;13.04;99471.66;1759804;80;20934;-74
2022/06/06 08:53:17;;;;;;;3.60;1.65;;;;;;;46.86;12.83;99461.75;1759999;80;21250;-74
2022/06/06 08:56:15;;;;;;;4.00;1.70;;;;;;;47.12;12.69;99454.92;1785088;80;21453;-74
2022/06/06 08:59:23;;;;;;;1.85;1.65;;;;;;;45.95;13.17;99456.16;1781282;80;20954;-75
2022/06/06 09:02:07;;;;;;;1.40;1.30;;;;;;;43.70;14.94;99459.39;1789752;80;20921;-74
2022/06/06 09:05:13;;;;;;;1.37;1.22;;;;;;;44.00;14.49;99457.19;1782722;80;20859;-74
2022/06/06 09:07:59;;;;;;;4.08;1.57;;;;;;;44.57;14.31;99458.22;1780660;80;22535;-76
2022/06/06 09:11:13;;;;;;;1.57;1.40;;;;;;;44.29;13.83;99448.91;1789930;80;20966;-74
2022/06/06 09:14:37;;;;;;;1.80;1.10;;;;;;;44.81;13.68;99445.44;1783542;80;20864;-74
2022/06/06 09:17:44;;;;;;;2.08;1.30;;;;;;;45.67;13.04;99434.39;1789658;80;21283;-72
2022/06/06 09:20:40;;;;;;;3.70;1.37;;;;;;;45.72;12.63;99440.39;1782809;80;20906;-76
2022/06/06 09:23:19;;;;;;;;;;;;;;;43.51;14.05;99437.29;1792432;79;21102;-72
2022/06/06 09:26:02;;;;;;;1.37;1.22;;;;;;;42.63;14.92;99434.52;1759449;80;20097;-73
2022/06/06 09:29:09;;;;;;;1.17;1.17;;;;;;;43.32;14.87;99437.55;1756158;80;20954;-73
2022/06/06 09:32:10;;;;;;;1.72;1.50;;;;;;;44.18;13.91;99432.05;1765256;81;21013;-72
2022/06/06 09:35:02;;;;;;;2.05;1.27;;;;;;;43.44;14.18;99429.63;1772806;81;20908;-75
2022/06/06 09:37:52;;;;;;;2.77;1.72;;;;;;;41.06;16.08;99441.72;1773132;79;21909;-75
2022/06/06 09:40:54;;;;;;;2.33;1.90;;;;;;;39.02;17.99;99443.69;1773224;79;20899;-73
2022/06/06 09:43:55;;;;;;;2.25;1.60;;;;;;;37.16;19.21;99450.30;1743833;81;20967;-72
2022/06/06 09:46:50;;;;;;;2.65;1.40;;;;;;;35.38;20.97;99452.95;1765325;81;20848;-72
2022/06/06 09:49:50;;;;;;;2.00;1.37;;;;;;;34.00;22.46;99450.49;1773314;81;21040;-72
2022/06/06 09:53:13;;;;;;;1.50;1.40;;;;;;;34.12;23.02;99444.36;1743347;81;21255;-74
2022/06/06 09:59:33;;;;;;;4.47;2.00;;;;;;;35.57;21.19;99441.70;1767638;81;20936;-72
2022/06/06 10:02:26;;;;;;;2.20;1.45;;;;;;;35.31;21.53;99448.75;1765544;81;21407;-73
2022/06/06 10:05:04;;;;;;;2.58;2.37;;;;;;;34.98;21.75;99444.99;1772246;80;21423;-72
2022/06/06 10:08:10;;;;;;;2.55;1.52;;;;;;;34.75;21.92;99441.64;1773069;81;21254;-74
2022/06/06 10:11:22;;;;;;;2.27;1.22;;;;;;;34.49;22.43;99431.80;1773037;79;20962;-72
2022/06/06 10:14:08;;;;;;;1.12;1.12;;;;;;;34.12;22.99;99436.91;1773256;79;20892;-71
2022/06/06 10:16:53;;;;;;;1.60;1.50;;;;;;;33.87;23.69;99434.12;1772862;80;21504;-72
2022/06/06 10:19:56;;;;;;;0.98;0.98;;;;;;;33.62;23.56;99433.52;1773188;81;20907;-72
2022/06/06 10:22:48;;;;;;;12.18;1.10;;;;;;;33.47;23.38;99433.40;1773373;81;21286;-72
2022/06/06 10:25:41;;;;;;;3.65;1.30;;;;;;;33.29;23.37;99436.69;1742978;81;20986;-72
2022/06/06 10:28:20;;;;;;;1.50;1.40;;;;;;;33.13;23.45;99428.61;1763878;81;21453;-73
2022/06/06 10:31:14;;;;;;;1.12;1.12;;;;;;;32.98;23.59;99429.81;1773367;79;21088;-75
2022/06/06 10:34:13;;;;;;;1.37;1.27;;;;;;;32.84;23.81;99423.61;1773475;79;20920;-73
2022/06/06 10:37:23;;;;;;;2.17;1.20;;;;;;;32.77;24.71;99427.95;1767642;81;21272;-72
2022/06/06 10:40:11;;;;;;;1.60;1.42;;;;;;;32.61;24.73;99427.55;1726834;81;20908;-71
2022/06/06 10:43:21;;;;;;;2.47;1.40;;;;;;;32.44;25.36;99423.28;1697716;83;21527;-72
2022/06/06 10:45:51;;;;;;;3.05;1.60;;;;;;;32.09;25.14;99418.13;1712159;82;20982;-71
2022/06/06 10:49:01;;;;;;;2.37;1.30;;;;;;;31.68;25.45;99422.36;1718640;83;20985;-72
2022/06/06 10:52:09;;;;;;;1.72;1.30;;;;;;;31.38;25.81;99425.77;1733418;82;21116;-72
2022/06/06 10:55:24;;;;;;;1.20;1.20;;;;;;;31.21;26.67;99424.19;1731989;82;20983;-73
2022/06/06 10:58:23;;;;;;;1.60;1.50;;;;;;;30.89;26.74;99418.80;1731329;82;20928;-73
2022/06/06 11:01:10;;;;;;;1.27;1.27;;;;;;;30.41;27.17;99415.02;1738186;82;21367;-73
2022/06/06 11:04:01;;;;;;;1.10;1.10;;;;;;;30.04;27.45;99415.06;1737722;82;21000;-72
2022/06/06 11:06:53;;;;;;;1.37;1.30;;;;;;;29.84;27.55;99416.76;1738131;82;21449;-72
2022/06/06 11:09:48;;;;;;;1.77;1.15;;;;;;;29.75;28.02;99413.84;1738564;82;20944;-73
2022/06/06 11:12:27;;;;;;;1.10;1.10;;;;;;;29.69;28.23;99413.67;1738450;82;21010;-73
2022/06/06 11:14:54;;;;;;;1.30;1.30;;;;;;;29.71;28.17;99407.88;1709233;82;20984;-73
2022/06/06 11:17:56;;;;;;;1.30;1.20;;;;;;;29.82;28.62;99405.28;1710109;82;21051;-72
2022/06/06 11:20:49;;;;;;;2.30;1.40;;;;;;;29.87;28.44;99401.09;1710004;82;22160;-74
2022/06/06 11:23:34;;;;;;;1.80;1.35;;;;;;;29.72;28.40;99405.41;1730454;82;21039;-72
2022/06/06 11:26:39;;;;;;;1.02;1.00;;;;;;;29.64;28.17;99398.67;1736340;82;21002;-72
2022/06/06 11:29:26;;;;;;;2.87;1.20;;;;;;;29.56;28.14;99395.77;1739767;82;21576;-72
2022/06/06 11:32:30;;;;;;;3.55;1.50;;;;;;;29.45;28.84;99393.73;1746495;82;21418;-71
2022/06/06 11:35:12;;;;;;;2.35;1.10;;;;;;;29.41;29.90;99389.94;1746426;82;21811;-72
2022/06/06 11:38:18;;;;;;;5.87;1.40;;;;;;;29.47;29.72;99394.80;1746333;81;20935;-72
2022/06/06 11:41:23;;;;;;;1.30;1.20;;;;;;;29.52;29.49;99394.17;1746547;82;20935;-72
2022/06/06 11:44:04;;;;;;;1.60;1.50;;;;;;;29.35;28.79;99392.51;1746610;82;20954;-72
2022/06/06 11:47:15;;;;;;;1.47;1.37;;;;;;;29.18;29.45;99393.51;1746226;82;20955;-73
2022/06/06 11:50:12;;;;;;;1.52;1.42;;;;;;;29.00;29.67;99389.63;1740642;82;21955;-73
2022/06/06 11:53:06;;;;;;;3.95;1.12;;;;;;;28.91;30.17;99389.21;1746458;82;20891;-73
2022/06/06 11:55:58;;;;;;;1.98;1.30;;;;;;;28.85;29.96;99382.98;1746378;82;20991;-72
2022/06/06 11:58:54;;;;;;;3.27;1.40;;;;;;;28.61;29.90;99384.85;1746567;82;20971;-72
2022/06/06 12:01:56;;;;;;;1.40;1.30;;;;;;;28.44;29.48;99388.60;1746482;82;20987;-71
2022/06/06 12:04:56;;;;;;;1.42;1.30;;;;;;;28.32;29.66;99386.78;1746464;82;21237;-72
2022/06/06 12:07:37;;;;;;;1.02;1.02;;;;;;;28.31;29.63;99386.00;1746431;82;20931;-73
2022/06/06 12:10:22;;;;;;;1.32;1.22;;;;;;;28.31;29.61;99389.27;1738061;82;20959;-74
2022/06/06 12:13:03;;;;;;;2.25;1.17;;;;;;;28.34;30.32;99384.02;1742676;82;20907;-73
2022/06/06 12:16:12;;;;;;;1.32;1.22;;;;;;;28.43;30.42;99385.59;1746608;82;20884;-72
2022/06/06 12:19:02;;;;;;;1.22;1.22;;;;;;;28.47;29.98;99383.92;1696435;83;21526;-72
2022/06/06 12:21:56;;;;;;;1.72;1.37;;;;;;;28.43;29.91;99380.12;1711551;83;20894;-71
2022/06/06 12:24:40;;;;;;;1.30;1.30;;;;;;;28.43;30.43;99380.94;1720474;82;20986;-71
2022/06/06 12:27:28;;;;;;;3.27;1.35;;;;;;;28.41;30.12;99372.77;1720380;83;20906;-73
2022/06/06 12:30:09;;;;;;;1.25;1.20;;;;;;;28.30;29.99;99368.48;1699039;82;20981;-71
2022/06/06 12:32:52;;;;;;;2.22;1.37;;;;;;;28.23;30.58;99367.47;1692812;83;21162;-73
2022/06/06 12:35:30;;;;;;;2.10;1.37;;;;;;;28.24;30.90;99360.87;1692746;83;21543;-72
2022/06/06 12:38:15;;;;;;;1.55;1.45;;;;;;;28.27;31.18;99364.41;1712125;83;20894;-71
2022/06/06 12:41:20;;;;;;;1.77;1.27;;;;;;;28.24;30.62;99364.98;1720636;83;21106;-73
2022/06/06 12:44:16;;;;;;;1.70;1.27;;;;;;;28.09;30.32;99366.49;1720366;82;21594;-72
2022/06/06 12:47:17;;;;;;;3.02;1.57;;;;;;;27.86;31.13;99365.30;1720491;83;21100;-72
2022/06/06 12:50:20;;;;;;;1.90;1.40;;;;;;;27.64;30.53;99365.48;1720391;82;21103;-72
2022/06/06 12:52:59;;;;;;;1.37;1.30;;;;;;;27.47;31.03;99365.85;1720366;82;21500;-73
2022/06/06 12:55:55;;;;;;;1.50;1.50;;;;;;;27.33;31.79;99356.06;1720333;83;21433;-72
2022/06/06 12:58:41;;;;;;;1.62;1.22;;;;;;;27.28;31.88;99360.73;1720240;82;20953;-71
2022/06/06 13:01:37;;;;;;;1.98;1.10;;;;;;;27.21;31.66;99359.69;1699145;82;21133;-73
2022/06/06 13:04:43;;;;;;;1.75;1.47;;;;;;;27.17;31.54;99353.14;1692767;83;20911;-72
2022/06/06 13:07:27;;;;;;;1.70;1.40;;;;;;;27.17;31.29;99351.78;1662471;83;21476;-73
2022/06/06 13:10:27;;;;;;;2.42;1.20;;;;;;;27.22;31.69;99353.69;1681833;83;20951;-72
2022/06/06 13:13:17;;;;;;;1.40;1.30;;;;;;;27.23;31.21;99346.56;1692895;83;20954;-75